Time;durP1;ratioP1;P1;durP2;ratioP2;P2;SDS_P1;SDS_P2;PMS_P1;PMS_P2;Temp;Humidity;BMP_temperature;BMP_pressure;BME280_temperature;BME280_humidity;BME280_pressure;Samples;Min_cycle;Max_cycle;Signal;HPM_P1;HPM_P2
2023/04/26 00:02:26;;;;;;;2.85;1.20;;;6.50;69.60;;;;;;5007948;28;20049;-69
2023/04/26 00:04:57;;;;;;;3.55;1.30;;;6.50;69.70;;;;;;4993684;28;20060;-69
2023/04/26 00:07:23;;;;;;;1.83;1.08;;;6.50;69.80;;;;;;5004949;28;20120;-68
2023/04/26 00:09:51;;;;;;;1.23;1.13;;;6.50;69.90;;;;;;5002953;28;20026;-68
2023/04/26 00:12:17;;;;;;;3.85;1.60;;;6.40;69.90;;;;;;4958988;28;20062;-72
2023/04/26 00:14:43;;;;;;;2.10;1.13;;;6.40;69.90;;;;;;4971154;28;20474;-71
2023/04/26 00:17:09;;;;;;;4.13;1.33;;;6.40;70.00;;;;;;4976945;28;20484;-71
2023/04/26 00:19:35;;;;;;;2.67;1.42;;;6.40;70.10;;;;;;4973502;28;20035;-72
2023/04/26 00:22:01;;;;;;;1.70;1.38;;;6.30;70.00;;;;;;4972785;28;20031;-72
2023/04/26 00:24:27;;;;;;;1.63;1.10;;;6.30;70.10;;;;;;4964099;28;20041;-72
2023/04/26 00:26:56;;;;;;;3.53;1.58;;;6.30;70.10;;;;;;4971923;28;20077;-72
2023/04/26 00:29:22;;;;;;;3.28;1.60;;;6.30;70.20;;;;;;4977866;28;20034;-72
2023/04/26 00:31:47;;;;;;;3.55;1.25;;;6.30;70.30;;;;;;4973014;28;20031;-72
2023/04/26 00:34:13;;;;;;;3.17;1.48;;;6.30;70.40;;;;;;4971924;28;20390;-72
2023/04/26 00:36:39;;;;;;;2.38;1.63;;;6.20;70.20;;;;;;4970632;28;20026;-74
2023/04/26 00:39:04;;;;;;;2.05;1.25;;;6.20;70.30;;;;;;4984336;28;20034;-72
2023/04/26 00:41:30;;;;;;;2.70;1.20;;;6.20;70.50;;;;;;4982325;28;20022;-72
2023/04/26 00:43:56;;;;;;;3.95;1.58;;;6.20;70.60;;;;;;4978100;28;20117;-72
2023/04/26 00:46:21;;;;;;;1.48;1.23;;;6.20;71.20;;;;;;4970602;28;20085;-71
2023/04/26 00:48:47;;;;;;;1.38;0.90;;;6.30;70.60;;;;;;4978570;28;20059;-72
2023/04/26 00:51:14;;;;;;;1.50;1.33;;;6.20;70.50;;;;;;4977011;28;20503;-72
2023/04/26 00:53:41;;;;;;;6.30;1.35;;;6.20;70.50;;;;;;4974060;28;20133;-68
2023/04/26 00:56:08;;;;;;;2.17;1.75;;;6.20;70.70;;;;;;4968356;28;20030;-67
2023/04/26 00:58:35;;;;;;;3.03;1.38;;;6.20;70.70;;;;;;4986468;28;20022;-68
2023/04/26 01:01:01;;;;;;;3.75;1.48;;;6.20;70.80;;;;;;4971782;28;20486;-72
2023/04/26 01:03:27;;;;;;;8.85;2.25;;;6.10;70.80;;;;;;4982045;28;20120;-68
2023/04/26 01:05:53;;;;;;;2.55;1.05;;;6.10;70.80;;;;;;4969599;28;20050;-72
2023/04/26 01:08:20;;;;;;;3.25;1.35;;;6.10;70.90;;;;;;4980925;28;20215;-68
2023/04/26 01:10:47;;;;;;;1.75;1.65;;;6.10;70.90;;;;;;4976187;28;20023;-68
2023/04/26 01:13:13;;;;;;;2.90;1.58;;;6.10;70.90;;;;;;4992431;28;20046;-68
2023/04/26 01:15:48;;;;;;;3.00;1.95;;;6.10;70.90;;;;;;4989150;28;20021;-68
2023/04/26 01:18:14;;;;;;;2.05;1.58;;;6.00;70.90;;;;;;4991497;28;20518;-72
2023/04/26 01:20:41;;;;;;;2.53;1.58;;;6.00;71.00;;;;;;5008500;28;20022;-72
2023/04/26 01:23:08;;;;;;;2.75;1.23;;;6.00;71.00;;;;;;5007490;28;20027;-72
2023/04/26 01:25:34;;;;;;;3.78;2.13;;;5.90;71.00;;;;;;5007841;28;20157;-73
2023/04/26 01:27:59;;;;;;;1.20;1.10;;;5.90;71.10;;;;;;5009055;28;20117;-68
2023/04/26 01:30:25;;;;;;;6.18;1.45;;;5.90;71.10;;;;;;5011975;28;20479;-68
2023/04/26 01:32:51;;;;;;;1.92;1.52;;;5.80;71.10;;;;;;4995372;28;20037;-73
2023/04/26 01:35:17;;;;;;;2.83;1.23;;;5.80;71.20;;;;;;5012656;28;20030;-73
2023/04/26 01:37:42;;;;;;;3.75;1.88;;;5.80;71.20;;;;;;5012289;28;20034;-69
2023/04/26 01:40:09;;;;;;;2.40;1.20;;;5.80;71.30;;;;;;5013437;28;20026;-69
2023/04/26 01:42:35;;;;;;;3.25;1.98;;;5.70;71.30;;;;;;5011702;28;20030;-69
2023/04/26 01:45:00;;;;;;;1.33;1.05;;;5.70;71.50;;;;;;5012456;28;20037;-69
2023/04/26 01:47:26;;;;;;;3.13;1.55;;;5.70;71.70;;;;;;4992253;28;20069;-69
2023/04/26 01:49:52;;;;;;;2.47;1.63;;;5.70;71.80;;;;;;5013050;28;20034;-69
2023/04/26 01:52:17;;;;;;;4.20;2.08;;;5.60;71.70;;;;;;5003943;28;20034;-69
2023/04/26 01:54:43;;;;;;;3.10;1.60;;;5.60;71.80;;;;;;5013507;28;20397;-69
2023/04/26 01:57:09;;;;;;;9.70;1.80;;;5.50;71.70;;;;;;5004467;28;20442;-69
2023/04/26 01:59:35;;;;;;;2.35;1.60;;;5.60;71.80;;;;;;5005206;28;20417;-69
2023/04/26 02:02:00;;;;;;;1.52;1.42;;;5.50;71.70;;;;;;5006247;28;20029;-73
2023/04/26 02:04:27;;;;;;;2.70;1.38;;;5.50;71.70;;;;;;4990304;28;20034;-73
2023/04/26 02:06:52;;;;;;;1.27;1.17;;;5.50;71.70;;;;;;5011816;28;20113;-73
2023/04/26 02:09:18;;;;;;;1.65;1.50;;;5.50;71.70;;;;;;5007513;28;20108;-73
2023/04/26 02:11:44;;;;;;;2.05;1.38;;;5.50;71.70;;;;;;5009722;28;20064;-73
2023/04/26 02:14:10;;;;;;;5.13;1.20;;;5.40;71.70;;;;;;5007639;28;20118;-73
2023/04/26 02:16:36;;;;;;;4.45;1.80;;;5.40;71.90;;;;;;5011887;28;20030;-73
2023/04/26 02:19:04;;;;;;;3.50;1.27;;;5.40;71.80;;;;;;5010506;28;20108;-73
2023/04/26 02:21:29;;;;;;;8.63;1.35;;;5.40;71.80;;;;;;4978918;28;20032;-73
2023/04/26 02:23:56;;;;;;;1.42;1.27;;;5.40;71.90;;;;;;5007571;28;20039;-73
2023/04/26 02:26:22;;;;;;;2.03;1.35;;;5.40;71.90;;;;;;4994721;28;20065;-73
2023/04/26 02:28:47;;;;;;;2.53;1.20;;;5.40;72.00;;;;;;5011368;28;20068;-73
2023/04/26 02:31:13;;;;;;;1.63;1.10;;;5.30;72.00;;;;;;5008103;28;20065;-73
2023/04/26 02:33:39;;;;;;;3.38;1.55;;;5.40;72.10;;;;;;5007490;28;20026;-72
2023/04/26 02:36:05;;;;;;;5.63;2.33;;;5.40;72.00;;;;;;4994945;28;20042;-73
2023/04/26 02:38:35;;;;;;;1.30;1.15;;;5.30;72.00;;;;;;5011045;28;20116;-73
2023/04/26 02:41:02;;;;;;;3.47;1.48;;;5.30;72.20;;;;;;4992245;28;20029;-73
2023/04/26 02:43:28;;;;;;;2.72;1.40;;;5.30;73.00;;;;;;4985764;28;20087;-73
2023/04/26 02:45:54;;;;;;;4.55;1.48;;;5.30;72.60;;;;;;5011416;28;20042;-72
2023/04/26 02:48:19;;;;;;;3.95;1.38;;;5.30;72.70;;;;;;5005123;28;20501;-73
2023/04/26 02:50:46;;;;;;;2.45;1.60;;;5.30;72.90;;;;;;5011267;28;20069;-73
2023/04/26 02:53:12;;;;;;;3.63;1.80;;;5.20;73.00;;;;;;5005640;28;20042;-74
2023/04/26 02:55:38;;;;;;;4.20;1.80;;;5.20;73.00;;;;;;4982595;28;20440;-72
2023/04/26 02:58:05;;;;;;;4.55;1.88;;;5.20;73.00;;;;;;5011886;28;20530;-71
2023/04/26 03:00:32;;;;;;;1.55;1.42;;;5.20;73.10;;;;;;5010564;28;20026;-71
2023/04/26 03:02:58;;;;;;;3.03;1.30;;;5.20;73.20;;;;;;4993840;28;20040;-71
2023/04/26 03:05:24;;;;;;;10.50;2.58;;;5.10;73.20;;;;;;4992180;28;20397;-71
2023/04/26 03:07:50;;;;;;;3.60;1.73;;;5.10;73.20;;;;;;4992439;28;20546;-72
2023/04/26 03:10:15;;;;;;;1.83;1.25;;;5.10;73.30;;;;;;5009037;28;20505;-68
2023/04/26 03:12:41;;;;;;;3.45;1.75;;;5.10;73.30;;;;;;4993489;28;20417;-68
2023/04/26 03:15:07;;;;;;;6.00;1.48;;;5.10;73.30;;;;;;5010935;28;20174;-68
2023/04/26 03:17:33;;;;;;;2.40;1.67;;;5.00;73.40;;;;;;4999435;28;20022;-67
2023/04/26 03:19:58;;;;;;;3.28;1.88;;;5.00;73.40;;;;;;5009209;28;20378;-72
2023/04/26 03:22:24;;;;;;;0.88;0.88;;;5.00;73.50;;;;;;5010384;28;20047;-72
2023/04/26 03:24:50;;;;;;;3.80;1.45;;;5.00;73.40;;;;;;5010058;28;20225;-69
2023/04/26 03:27:16;;;;;;;2.03;1.50;;;4.90;73.40;;;;;;4993624;28;20031;-74
2023/04/26 03:29:41;;;;;;;1.60;1.40;;;4.90;73.40;;;;;;4993082;28;20034;-75
2023/04/26 03:32:07;;;;;;;3.65;1.75;;;4.90;73.50;;;;;;4990231;28;20105;-73
2023/04/26 03:34:33;;;;;;;2.83;1.70;;;4.90;73.50;;;;;;4991377;28;20087;-74
2023/04/26 03:36:58;;;;;;;1.95;1.70;;;4.80;73.60;;;;;;4999967;28;20456;-71
2023/04/26 03:39:24;;;;;;;1.30;1.10;;;4.80;73.60;;;;;;4987284;28;20035;-71
2023/04/26 03:41:49;;;;;;;2.20;1.58;;;4.80;73.50;;;;;;5009881;28;20392;-71
2023/04/26 03:44:15;;;;;;;2.15;1.45;;;4.80;73.50;;;;;;5010332;28;20408;-75
2023/04/26 03:46:42;;;;;;;2.13;1.52;;;4.80;73.50;;;;;;5010822;28;20499;-72
2023/04/26 03:49:08;;;;;;;2.30;1.70;;;4.80;73.50;;;;;;5009897;28;20038;-72
2023/04/26 03:51:33;;;;;;;7.43;1.83;;;4.80;73.60;;;;;;5008413;28;20026;-72
2023/04/26 03:53:59;;;;;;;2.38;1.40;;;4.80;73.60;;;;;;5009615;28;20072;-72
2023/04/26 03:56:25;;;;;;;2.40;1.90;;;4.70;73.60;;;;;;5006185;28;20766;-72
2023/04/26 03:58:51;;;;;;;2.03;1.50;;;4.70;73.70;;;;;;5008643;28;20516;-72
2023/04/26 04:01:16;;;;;;;1.83;1.30;;;4.70;73.70;;;;;;4991184;28;20063;-72
2023/04/26 04:03:42;;;;;;;2.25;1.23;;;4.70;73.80;;;;;;5009065;28;20026;-72
2023/04/26 04:06:08;;;;;;;2.15;1.63;;;4.70;73.70;;;;;;5009351;28;20413;-68
2023/04/26 04:08:33;;;;;;;2.33;1.30;;;4.70;73.80;;;;;;5009397;28;20068;-68
2023/04/26 04:11:00;;;;;;;2.42;1.50;;;4.70;73.80;;;;;;5009045;28;20042;-72
2023/04/26 04:13:26;;;;;;;4.90;2.13;;;4.70;73.90;;;;;;5007822;28;20042;-72
2023/04/26 04:15:52;;;;;;;2.80;1.63;;;4.70;74.00;;;;;;5008835;28;20052;-71
2023/04/26 04:18:17;;;;;;;5.65;2.13;;;4.60;74.00;;;;;;4989495;28;20026;-67
2023/04/26 04:20:43;;;;;;;7.45;2.20;;;4.60;74.10;;;;;;4988933;28;20030;-71
2023/04/26 04:23:09;;;;;;;2.65;1.77;;;4.60;74.20;;;;;;5008644;28;20045;-73
2023/04/26 04:25:35;;;;;;;1.30;1.20;;;4.60;74.20;;;;;;5009170;28;20121;-71
2023/04/26 04:28:02;;;;;;;2.97;1.80;;;4.60;74.30;;;;;;5005996;28;20539;-73
2023/04/26 04:30:28;;;;;;;3.22;1.30;;;4.60;74.40;;;;;;5007597;28;20045;-73
2023/04/26 04:32:57;;;;;;;3.10;1.73;;;4.60;74.40;;;;;;5008625;28;20400;-73
2023/04/26 04:35:27;;;;;;;1.73;1.38;;;4.60;74.40;;;;;;4990548;28;20507;-73
2023/04/26 04:37:52;;;;;;;2.38;1.65;;;4.70;74.60;;;;;;4974421;28;20033;-73
2023/04/26 04:40:18;;;;;;;3.95;2.22;;;4.70;74.60;;;;;;5008410;28;20481;-73
2023/04/26 04:42:45;;;;;;;1.40;1.05;;;4.70;74.60;;;;;;5007758;28;20038;-73
2023/04/26 04:45:10;;;;;;;5.32;1.35;;;4.70;74.50;;;;;;4975093;28;20034;-69
2023/04/26 04:47:36;;;;;;;1.50;0.98;;;4.70;74.60;;;;;;5005968;28;20088;-69
2023/04/26 04:50:04;;;;;;;2.17;0.93;;;4.70;74.50;;;;;;5009439;28;20049;-69
2023/04/26 04:52:32;;;;;;;7.55;1.30;;;4.70;74.60;;;;;;5007952;28;20381;-69
2023/04/26 04:54:58;;;;;;;2.15;1.10;;;4.70;74.60;;;;;;4991893;28;20384;-69
2023/04/26 04:57:23;;;;;;;1.30;1.20;;;4.80;74.60;;;;;;4988941;28;20029;-69
2023/04/26 04:59:50;;;;;;;5.47;2.08;;;4.80;74.60;;;;;;4987243;28;20080;-69
2023/04/26 05:02:15;;;;;;;2.88;1.48;;;4.80;74.50;;;;;;5004851;28;20038;-69
2023/04/26 05:04:41;;;;;;;2.58;1.50;;;4.90;74.60;;;;;;4972892;28;20034;-69
2023/04/26 05:07:08;;;;;;;1.83;1.45;;;4.90;74.60;;;;;;5008199;28;21042;-69
2023/04/26 05:09:34;;;;;;;1.85;1.33;;;5.00;74.60;;;;;;5004095;28;20037;-73
2023/04/26 05:12:00;;;;;;;2.13;1.48;;;5.00;74.60;;;;;;5007450;28;20034;-73
2023/04/26 05:14:26;;;;;;;5.53;1.70;;;5.10;74.70;;;;;;5008118;28;20033;-73
2023/04/26 05:16:51;;;;;;;1.85;1.60;;;5.10;74.70;;;;;;4987396;28;20484;-73
2023/04/26 05:19:17;;;;;;;2.25;1.58;;;5.20;74.80;;;;;;5005752;28;20164;-73
2023/04/26 05:21:43;;;;;;;1.83;1.50;;;5.20;74.80;;;;;;5006878;28;20121;-73
2023/04/26 05:24:08;;;;;;;3.85;2.00;;;5.30;74.80;;;;;;4990116;28;20030;-73
2023/04/26 05:26:34;;;;;;;1.75;1.27;;;5.40;74.80;;;;;;5009318;28;20157;-73
2023/04/26 05:29:00;;;;;;;2.83;1.58;;;5.50;74.70;;;;;;5008569;28;20120;-73
2023/04/26 05:31:26;;;;;;;1.50;1.30;;;5.60;74.70;;;;;;5008554;28;20053;-73
2023/04/26 05:33:52;;;;;;;1.27;1.17;;;5.70;74.60;;;;;;5007293;28;20432;-73
2023/04/26 05:36:18;;;;;;;3.42;1.20;;;5.80;74.50;;;;;;5008754;28;20026;-73
2023/04/26 05:38:43;;;;;;;1.75;1.55;;;5.90;74.50;;;;;;4987893;28;20022;-73
2023/04/26 05:41:09;;;;;;;2.40;1.73;;;5.90;74.40;;;;;;4989417;28;20485;-73
2023/04/26 05:43:36;;;;;;;3.08;1.55;;;6.10;74.30;;;;;;4998112;28;20038;-73
2023/04/26 05:46:01;;;;;;;4.85;1.83;;;6.20;74.20;;;;;;5005105;28;20093;-73
2023/04/26 05:48:28;;;;;;;1.80;1.27;;;6.30;74.10;;;;;;5007986;28;20037;-73
2023/04/26 05:50:54;;;;;;;2.97;1.45;;;6.40;74.10;;;;;;5009628;28;20543;-73
2023/04/26 05:53:20;;;;;;;6.97;1.77;;;6.40;74.00;;;;;;5005377;28;20033;-73
2023/04/26 05:55:46;;;;;;;2.08;1.35;;;6.50;73.90;;;;;;5007395;28;20499;-73
2023/04/26 05:58:12;;;;;;;2.67;1.27;;;6.60;73.90;;;;;;5009443;28;20382;-71
2023/04/26 06:00:38;;;;;;;2.20;1.70;;;6.70;73.80;;;;;;5006452;28;20029;-74
2023/04/26 06:03:04;;;;;;;2.85;1.67;;;6.80;73.80;;;;;;5009044;28;20030;-73
2023/04/26 06:05:32;;;;;;;7.18;1.58;;;6.90;73.80;;;;;;5008934;28;20030;-71
2023/04/26 06:07:58;;;;;;;13.70;1.58;;;6.90;73.60;;;;;;4991039;28;20022;-72
2023/04/26 06:10:24;;;;;;;2.22;1.58;;;7.00;73.60;;;;;;5008301;28;20517;-72
2023/04/26 06:12:50;;;;;;;1.48;0.98;;;7.10;73.40;;;;;;5007044;28;20056;-72
2023/04/26 06:15:16;;;;;;;0.77;0.77;;;7.30;73.20;;;;;;5011518;28;20044;-74
2023/04/26 06:17:41;;;;;;;3.15;1.52;;;7.40;73.10;;;;;;5010250;28;20100;-72
2023/04/26 06:20:11;;;;;;;2.45;1.02;;;7.50;72.90;;;;;;5007837;28;20112;-73
2023/04/26 06:22:37;;;;;;;3.05;1.52;;;7.60;72.60;;;;;;5004188;28;20473;-73
2023/04/26 06:25:05;;;;;;;1.63;0.70;;;7.70;72.10;;;;;;5000089;28;20025;-69
2023/04/26 06:27:31;;;;;;;2.35;0.70;;;7.90;72.00;;;;;;5007243;28;20042;-73
2023/04/26 06:29:56;;;;;;;6.72;1.00;;;8.00;71.60;;;;;;5009826;28;20030;-72
2023/04/26 06:32:22;;;;;;;3.42;1.42;;;8.10;71.20;;;;;;4978664;28;20069;-73
2023/04/26 06:34:48;;;;;;;1.88;1.02;;;8.20;70.80;;;;;;5009039;28;20022;-73
2023/04/26 06:37:13;;;;;;;1.70;1.10;;;8.30;70.40;;;;;;5009860;28;20037;-70
2023/04/26 06:39:39;;;;;;;1.55;0.55;;;8.40;69.90;;;;;;5009753;28;20025;-68
2023/04/26 06:42:05;;;;;;;1.55;1.08;;;8.40;69.70;;;;;;5006680;28;20038;-72
2023/04/26 06:44:31;;;;;;;5.88;0.68;;;8.50;69.40;;;;;;5007967;28;20100;-69
2023/04/26 06:46:56;;;;;;;0.85;0.80;;;8.60;69.20;;;;;;4992634;28;20444;-71
2023/04/26 06:49:23;;;;;;;1.00;0.57;;;8.60;68.70;;;;;;5010874;28;20029;-69
2023/04/26 06:51:48;;;;;;;1.75;0.90;;;8.70;68.40;;;;;;5006685;28;20034;-67
2023/04/26 06:54:14;;;;;;;2.17;0.95;;;8.70;68.20;;;;;;5005918;28;20087;-69
2023/04/26 06:56:40;;;;;;;1.45;1.05;;;8.70;68.20;;;;;;5006853;28;20026;-69
2023/04/26 06:59:06;;;;;;;0.98;0.90;;;8.80;68.30;;;;;;5009986;28;20030;-67
2023/04/26 07:01:34;;;;;;;1.85;1.02;;;8.90;67.90;;;;;;4990277;28;20030;-72
2023/04/26 07:04:03;;;;;;;1.75;1.10;;;8.90;67.80;;;;;;5010761;28;20037;-72
2023/04/26 07:06:30;;;;;;;2.88;1.23;;;8.90;67.60;;;;;;5011593;28;20381;-73
2023/04/26 07:08:57;;;;;;;3.22;0.70;;;9.00;67.10;;;;;;5010754;28;20037;-73
2023/04/26 07:11:23;;;;;;;2.50;0.60;;;8.90;66.70;;;;;;5008251;28;20042;-70
2023/04/26 07:13:49;;;;;;;1.50;0.95;;;8.90;66.20;;;;;;4991988;28;20595;-72
2023/04/26 07:16:15;;;;;;;0.60;0.40;;;8.90;66.20;;;;;;4995875;28;20473;-74
2023/04/26 07:18:41;;;;;;;1.45;0.68;;;9.00;66.40;;;;;;5008888;28;20087;-74
2023/04/26 07:21:07;;;;;;;0.50;0.50;;;9.10;66.30;;;;;;5002794;28;20170;-73
2023/04/26 07:23:33;;;;;;;2.45;0.70;;;9.30;66.10;;;;;;5011610;28;20033;-70
2023/04/26 07:26:00;;;;;;;0.50;0.50;;;9.40;65.50;;;;;;5009764;28;20034;-70
2023/04/26 07:28:26;;;;;;;2.50;0.93;;;9.40;63.90;;;;;;5010989;28;20552;-73
2023/04/26 07:30:52;;;;;;;2.13;0.95;;;9.40;64.00;;;;;;5010348;28;20038;-72
2023/04/26 07:33:18;;;;;;;3.85;0.82;;;9.30;64.10;;;;;;5010278;28;20026;-72
2023/04/26 07:35:44;;;;;;;1.92;1.00;;;9.40;64.30;;;;;;4975045;28;20029;-69
2023/04/26 07:38:10;;;;;;;1.27;1.05;;;9.40;64.50;;;;;;5000710;28;20519;-70
2023/04/26 07:40:35;;;;;;;2.08;1.02;;;9.60;64.60;;;;;;5001136;28;20057;-70
2023/04/26 07:43:01;;;;;;;0.77;0.60;;;9.70;64.50;;;;;;5006352;28;20042;-70
2023/04/26 07:45:27;;;;;;;4.68;0.80;;;9.80;64.20;;;;;;5006725;28;20038;-71
2023/04/26 07:47:53;;;;;;;2.35;0.85;;;9.80;63.80;;;;;;4989565;28;20061;-71
2023/04/26 07:50:19;;;;;;;1.52;0.90;;;9.90;64.00;;;;;;5002569;28;20038;-71
2023/04/26 07:52:45;;;;;;;1.00;0.70;;;9.90;63.60;;;;;;4981574;28;20453;-69
2023/04/26 07:55:11;;;;;;;1.52;0.80;;;10.00;63.50;;;;;;4989695;28;20105;-71
2023/04/26 07:57:37;;;;;;;1.95;0.93;;;10.00;63.50;;;;;;5003897;28;20113;-71
2023/04/26 08:00:09;;;;;;;0.52;0.52;;;10.10;63.20;;;;;;5007470;28;20013;-71
2023/04/26 08:02:35;;;;;;;2.33;0.90;;;10.20;63.30;;;;;;5005887;28;20026;-71
2023/04/26 08:05:00;;;;;;;2.33;0.95;;;10.20;62.90;;;;;;5009909;28;20507;-71
2023/04/26 08:07:26;;;;;;;0.75;0.52;;;10.30;62.30;;;;;;5006643;28;20041;-69
2023/04/26 08:09:52;;;;;;;2.10;0.57;;;10.40;62.50;;;;;;5004349;28;20104;-71
2023/04/26 08:12:18;;;;;;;0.85;0.52;;;10.50;61.90;;;;;;4985747;28;20038;-71
2023/04/26 08:14:44;;;;;;;2.03;0.70;;;10.60;62.20;;;;;;5008897;28;20033;-69
2023/04/26 08:17:10;;;;;;;1.50;0.98;;;10.70;62.10;;;;;;4982947;28;20544;-70
2023/04/26 08:19:36;;;;;;;0.77;0.50;;;10.80;61.40;;;;;;4984539;28;20035;-69
2023/04/26 08:22:01;;;;;;;2.00;0.75;;;10.70;59.00;;;;;;5010301;28;20052;-71
2023/04/26 08:24:27;;;;;;;1.60;0.50;;;10.50;59.20;;;;;;5010085;28;20033;-71
2023/04/26 08:26:54;;;;;;;0.90;0.60;;;10.40;59.30;;;;;;5009293;28;20022;-71
2023/04/26 08:29:20;;;;;;;1.23;0.50;;;10.30;59.30;;;;;;5009551;28;20076;-71
2023/04/26 08:31:45;;;;;;;0.65;0.40;;;10.20;59.30;;;;;;5009693;28;20030;-69
2023/04/26 08:34:12;;;;;;;0.90;0.57;;;10.20;59.70;;;;;;4990741;28;20080;-71
2023/04/26 08:36:41;;;;;;;0.30;0.30;;;10.30;59.90;;;;;;5006194;28;20469;-70
2023/04/26 08:39:07;;;;;;;1.90;0.63;;;10.40;60.00;;;;;;5007311;28;20104;-70
2023/04/26 08:41:36;;;;;;;0.63;0.40;;;10.50;59.50;;;;;;5004507;28;20038;-70
2023/04/26 08:44:05;;;;;;;0.60;0.47;;;10.60;59.40;;;;;;5009304;28;20433;-70
2023/04/26 08:46:58;;;;;;;1.20;0.82;;;10.80;59.10;;;;;;4990565;28;20531;-68
2023/04/26 08:49:24;;;;;;;1.17;0.70;;;11.00;58.70;;;;;;5006344;28;20042;-68
2023/04/26 08:51:51;;;;;;;0.57;0.50;;;11.00;57.10;;;;;;5004394;28;20136;-69
2023/04/26 08:54:18;;;;;;;1.70;0.75;;;11.00;57.30;;;;;;5002309;28;20030;-69
2023/04/26 08:56:46;;;;;;;1.10;0.73;;;10.90;57.40;;;;;;4988798;28;20091;-70
2023/04/26 08:59:12;;;;;;;1.10;0.70;;;10.90;57.70;;;;;;5000964;28;20010;-70
2023/04/26 09:01:43;;;;;;;0.50;0.45;;;10.80;57.60;;;;;;5008041;28;20022;-70
2023/04/26 09:04:09;;;;;;;1.10;0.55;;;10.70;57.50;;;;;;5007297;28;20121;-69
2023/04/26 09:06:36;;;;;;;1.88;0.90;;;10.60;57.30;;;;;;4999145;28;20130;-68
2023/04/26 09:09:06;;;;;;;2.55;1.20;;;10.50;56.90;;;;;;5002975;28;20116;-68
2023/04/26 09:11:58;;;;;;;1.08;0.98;;;10.50;57.10;;;;;;4999422;28;20060;-69
2023/04/26 09:14:25;;;;;;;5.03;1.02;;;10.50;56.60;;;;;;4980867;28;20025;-69
2023/04/26 09:16:52;;;;;;;2.75;1.17;;;10.40;56.90;;;;;;4990361;28;20018;-68
2023/04/26 09:19:38;;;;;;;2.25;1.00;;;10.30;57.30;;;;;;5003971;28;20285;-70
2023/04/26 09:22:05;;;;;;;1.25;0.65;;;10.30;56.90;;;;;;5002644;28;20038;-68
2023/04/26 09:24:51;;;;;;;1.25;0.75;;;10.30;57.60;;;;;;5000162;28;20030;-68
2023/04/26 09:27:17;;;;;;;3.78;0.65;;;10.50;57.80;;;;;;4984652;28;20041;-68
2023/04/26 09:30:09;;;;;;;0.80;0.40;;;10.50;56.90;;;;;;4996103;28;20045;-68
2023/04/26 09:32:56;;;;;;;16.52;0.95;;;10.70;56.90;;;;;;4998519;28;20223;-68
2023/04/26 09:35:31;;;;;;;1.83;0.60;;;10.80;57.00;;;;;;4999450;28;20513;-68
2023/04/26 09:37:58;;;;;;;1.05;0.55;;;11.10;56.10;;;;;;5002008;28;20647;-68
2023/04/26 09:40:26;;;;;;;4.25;1.00;;;11.20;55.90;;;;;;5003344;28;20026;-69
2023/04/26 09:43:10;;;;;;;1.02;0.70;;;11.40;56.00;;;;;;4998786;28;20034;-68
2023/04/26 09:45:49;;;;;;;3.42;0.88;;;11.40;55.30;;;;;;5003393;28;20029;-69
2023/04/26 09:48:21;;;;;;;1.88;0.60;;;11.40;54.90;;;;;;5003839;28;20125;-69
2023/04/26 09:50:51;;;;;;;1.17;0.88;;;11.20;55.10;;;;;;5003614;28;20479;-69
2023/04/26 09:53:36;;;;;;;0.80;0.55;;;11.10;55.10;;;;;;5005690;28;20033;-69
2023/04/26 09:56:13;;;;;;;3.70;0.50;;;11.00;55.40;;;;;;4988177;28;20018;-69
2023/04/26 09:58:45;;;;;;;0.95;0.93;;;10.90;55.70;;;;;;4986706;28;20520;-68
2023/04/26 10:01:19;;;;;;;1.15;0.90;;;10.80;55.60;;;;;;5011832;28;20137;-68
2023/04/26 10:03:45;;;;;;;2.75;0.55;;;10.70;55.90;;;;;;5004535;28;20035;-68
2023/04/26 10:06:14;;;;;;;1.83;1.08;;;10.60;56.00;;;;;;5011666;28;20485;-68
2023/04/26 10:08:41;;;;;;;0.45;0.43;;;10.50;56.30;;;;;;5008140;28;20053;-68
2023/04/26 10:11:08;;;;;;;3.33;0.98;;;10.50;56.80;;;;;;5009189;28;20109;-69
2023/04/26 10:13:34;;;;;;;1.27;0.63;;;10.50;56.50;;;;;;5005949;28;20034;-69
2023/04/26 10:16:01;;;;;;;3.80;0.60;;;10.50;56.60;;;;;;4993157;28;20036;-69
2023/04/26 10:18:27;;;;;;;0.57;0.55;;;10.50;56.80;;;;;;4989591;28;21151;-69
2023/04/26 10:20:58;;;;;;;1.85;0.65;;;10.50;56.90;;;;;;5007071;28;20033;-69
2023/04/26 10:23:25;;;;;;;1.02;0.73;;;10.60;56.70;;;;;;4992963;28;20370;-70
2023/04/26 10:25:51;;;;;;;4.38;0.90;;;10.70;56.80;;;;;;5007092;28;20327;-69
2023/04/26 10:28:37;;;;;;;2.05;0.73;;;10.80;56.70;;;;;;4992670;28;20045;-69
2023/04/26 10:31:04;;;;;;;1.20;0.50;;;10.80;56.60;;;;;;4988973;28;20038;-69
2023/04/26 10:33:30;;;;;;;1.48;0.70;;;10.90;56.50;;;;;;5007598;28;20026;-69
2023/04/26 10:36:02;;;;;;;2.22;0.77;;;11.00;56.20;;;;;;5008252;28;20036;-69
2023/04/26 10:38:28;;;;;;;1.23;0.75;;;11.20;56.00;;;;;;5009362;28;20025;-69
2023/04/26 10:40:55;;;;;;;1.00;0.75;;;11.30;55.30;;;;;;5009611;28;20041;-69
2023/04/26 10:43:27;;;;;;;1.58;0.60;;;11.30;54.70;;;;;;5004935;28;20250;-69
2023/04/26 10:45:55;;;;;;;8.95;0.98;;;11.30;54.20;;;;;;5001942;28;20056;-70
2023/04/26 10:48:22;;;;;;;1.20;0.60;;;11.30;54.40;;;;;;5006801;28;20033;-70
2023/04/26 10:51:00;;;;;;;0.85;0.63;;;11.40;54.60;;;;;;5006834;28;20112;-68
2023/04/26 10:53:27;;;;;;;1.08;0.60;;;11.50;54.60;;;;;;5007770;28;20128;-68
2023/04/26 10:55:53;;;;;;;0.80;0.80;;;11.60;54.30;;;;;;5002482;28;20037;-69
2023/04/26 10:58:28;;;;;;;0.75;0.75;;;11.60;54.30;;;;;;5009843;28;20073;-69
2023/04/26 11:01:20;;;;;;;2.92;1.27;;;11.50;54.80;;;;;;5008858;28;20099;-69
2023/04/26 11:04:09;;;;;;;2.03;0.87;;;11.50;54.90;;;;;;5005082;28;20405;-69
2023/04/26 11:06:51;;;;;;;3.53;1.20;;;11.40;55.10;;;;;;4999477;28;20425;-69
2023/04/26 11:09:32;;;;;;;;;;;11.40;55.30;;;;;;5004988;28;20611;-68
2023/04/26 11:11:57;;;;;;;1.83;0.93;;;11.40;55.40;;;;;;4995115;28;19918;-69
2023/04/26 11:14:25;;;;;;;2.15;0.90;;;11.40;55.50;;;;;;4983265;28;20034;-69
2023/04/26 11:16:50;;;;;;;0.80;0.63;;;11.40;55.30;;;;;;4987864;28;20034;-71
2023/04/26 11:19:16;;;;;;;1.20;0.50;;;11.40;54.60;;;;;;5004785;28;20037;-69
2023/04/26 11:21:42;;;;;;;2.85;0.90;;;11.50;54.70;;;;;;4987409;28;20026;-70
2023/04/26 11:24:07;;;;;;;1.08;0.95;;;11.40;53.60;;;;;;5002594;28;20413;-70
2023/04/26 11:26:34;;;;;;;0.75;0.75;;;11.40;53.70;;;;;;5007676;28;20503;-70
2023/04/26 11:29:00;;;;;;;0.57;0.57;;;11.50;53.90;;;;;;4990075;28;22060;-70
2023/04/26 11:31:28;;;;;;;1.92;0.93;;;11.50;53.40;;;;;;5006352;28;20433;-70
2023/04/26 11:33:59;;;;;;;1.58;0.40;;;11.50;53.30;;;;;;5006302;28;20444;-68
2023/04/26 11:36:26;;;;;;;1.42;0.80;;;11.60;53.50;;;;;;5003523;28;20038;-68
2023/04/26 11:38:52;;;;;;;1.27;0.80;;;11.60;53.80;;;;;;4988928;28;20049;-68
2023/04/26 11:41:21;;;;;;;1.00;0.82;;;11.60;52.80;;;;;;4987040;28;20086;-68
2023/04/26 11:43:47;;;;;;;2.28;0.93;;;11.50;53.30;;;;;;5007379;28;20112;-70
2023/04/26 11:46:12;;;;;;;2.88;0.60;;;11.60;53.50;;;;;;4982422;28;20116;-68
2023/04/26 11:48:40;;;;;;;1.60;0.95;;;11.60;53.10;;;;;;5003429;28;20069;-68
2023/04/26 11:51:07;;;;;;;0.35;0.30;;;11.70;53.20;;;;;;5009885;28;20492;-68
2023/04/26 11:53:41;;;;;;;0.57;0.57;;;11.80;53.30;;;;;;5010833;28;20117;-68
2023/04/26 11:56:17;;;;;;;0.50;0.50;;;11.90;53.00;;;;;;4990706;28;20264;-69
2023/04/26 11:58:47;;;;;;;3.33;0.47;;;11.90;52.60;;;;;;5002369;28;20033;-69
2023/04/26 12:01:20;;;;;;;0.93;0.47;;;12.00;52.20;;;;;;5011367;28;20037;-69
2023/04/26 12:03:49;;;;;;;0.90;0.50;;;12.20;52.20;;;;;;5007955;28;20481;-70
2023/04/26 12:06:15;;;;;;;0.70;0.70;;;12.70;51.40;;;;;;5001186;28;20121;-69
2023/04/26 12:08:40;;;;;;;2.47;0.80;;;13.10;50.10;;;;;;5006310;28;20680;-71
2023/04/26 12:11:07;;;;;;;0.85;0.50;;;13.50;50.10;;;;;;5007259;28;20053;-69
2023/04/26 12:13:32;;;;;;;1.05;0.73;;;14.00;49.80;;;;;;5004201;28;20046;-69
2023/04/26 12:15:58;;;;;;;0.50;0.50;;;14.30;48.70;;;;;;4984665;28;20088;-69
2023/04/26 12:18:31;;;;;;;0.77;0.73;;;14.60;48.40;;;;;;4996521;28;20037;-68
2023/04/26 12:20:58;;;;;;;1.70;1.00;;;14.90;47.60;;;;;;4999518;28;20109;-68
2023/04/26 12:23:25;;;;;;;1.40;0.55;;;15.00;46.90;;;;;;4988913;28;20057;-69
2023/04/26 12:25:53;;;;;;;0.95;0.80;;;14.90;46.40;;;;;;4995784;28;20159;-70
2023/04/26 12:28:19;;;;;;;0.47;0.40;;;14.70;46.30;;;;;;4996776;28;20057;-69
2023/04/26 12:30:45;;;;;;;1.02;0.70;;;14.50;46.60;;;;;;5003430;28;20069;-68
2023/04/26 12:33:11;;;;;;;1.27;0.50;;;14.30;46.50;;;;;;4997542;28;20902;-69
2023/04/26 12:35:36;;;;;;;2.15;0.30;;;14.10;47.20;;;;;;5002903;28;20029;-69
2023/04/26 12:38:02;;;;;;;1.05;0.60;;;14.00;47.70;;;;;;4997159;28;20108;-69
2023/04/26 12:40:28;;;;;;;0.70;0.70;;;14.00;47.90;;;;;;4989750;28;20408;-69
2023/04/26 12:42:55;;;;;;;2.65;1.25;;;13.80;47.40;;;;;;4985937;28;20575;-70
2023/04/26 12:45:22;;;;;;;0.63;0.63;;;13.60;46.70;;;;;;5006187;28;20030;-70
2023/04/26 12:47:48;;;;;;;0.82;0.73;;;13.40;47.10;;;;;;4989947;28;20149;-70
2023/04/26 12:50:14;;;;;;;2.92;1.15;;;13.30;47.40;;;;;;5003739;28;20034;-70
2023/04/26 12:52:44;;;;;;;2.70;1.17;;;13.10;46.90;;;;;;5007615;28;20092;-69
2023/04/26 12:55:12;;;;;;;1.38;1.00;;;13.00;47.00;;;;;;5004397;28;20030;-69